Midoey Viking — LGUP — position and weather

sailwx.info

Track history (hours):
 
Tides and Currents Weather Stations Pressure Air Temp Water Temp Dewpoint Dewpoint Depression Visibility Wind Speed Wind Dir Waves Ship Positions

Midoey Viking

Last reported at 2017-Nov-18 08:15 UTC. Time now 2017-Nov-19 01:29 UTC.
Position N 69°07' E 017°38'.

Length 33 m; draft 5.5 m.

Type: Fishing. MMSI: 257465500.

Date/timePositionNaut miles runAvg speedWind from/ knotsBaromVisibWave heightAir tempDewpointWater temp
2017-Nov-18 08:15N 69°07' E 017°38'2 9.2
2017-Nov-18 08:00N 69°06' E 017°32'110 8.7
2017-Nov-17 19:25N 67°39' E 014°31'4 9.3
2017-Nov-17 19:00N 67°36' E 014°31'5 9.2
2017-Nov-17 18:31N 67°31' E 014°32'5 9.0
2017-Nov-17 18:00N 67°27' E 014°29'5 9.4
2017-Nov-17 17:31N 67°22' E 014°25'4 9.0
2017-Nov-17 17:01N 67°19' E 014°18'4 8.9
2017-Nov-17 16:30N 67°15' E 014°11'4 8.6
2017-Nov-17 16:00N 67°11' E 014°05'5 9.1
2017-Nov-17 15:29N 67°07' E 014°00'5 9.3
2017-Nov-17 15:00N 67°03' E 013°53'4 9.2
2017-Nov-17 14:30N 67°01' E 013°44'5 9.0
2017-Nov-17 14:00N 66°58' E 013°34'6 8.1
2017-Nov-17 13:19N 66°54' E 013°26'25 9.1
2017-Nov-17 10:34N 66°31' E 012°58'110.0
2017-Nov-17 10:29N 66°30' E 012°59'7 9.7
2017-Nov-17 09:46N 66°23' E 012°59'3 9.6
2017-Nov-17 09:30N 66°21' E 012°58'63 8.9
2017-Nov-17 02:26N 65°22' E 012°02'4 7.7
2017-Nov-17 01:56N 65°18' E 011°60'4 9.5
2017-Nov-17 01:30N 65°15' E 011°55'5 9.7
2017-Nov-17 01:00N 65°10' E 011°51'5 9.5
2017-Nov-17 00:30N 65°06' E 011°47'5 9.4
2017-Nov-17 00:00N 65°01' E 011°42'4 8.7
2017-Nov-16 23:31N 64°58' E 011°34'5 9.1
2017-Nov-16 23:00N 64°56' E 011°26'5 9.3
2017-Nov-16 22:31N 64°53' E 011°17'5 9.0
2017-Nov-16 22:00N 64°49' E 011°10'112 8.7
2017-Nov-16 09:06N 63°23' E 008°28'1 9.3
2017-Nov-16 09:00N 63°22' E 008°27'5 9.5
2017-Nov-16 08:30N 63°19' E 008°18'5 9.9
2017-Nov-16 08:00N 63°16' E 008°09'5 9.6
2017-Nov-16 07:30N 63°14' E 008°00'5 9.8
2017-Nov-16 07:00N 63°12' E 007°50'5 9.7
2017-Nov-16 06:30N 63°09' E 007°41'5 9.5
2017-Nov-16 06:00N 63°07' E 007°33'5 8.9
2017-Nov-16 05:30N 63°04' E 007°24'4 8.6
2017-Nov-16 05:00N 63°03' E 007°15'4 8.4
2017-Nov-16 04:30N 63°01' E 007°07'4 8.6
2017-Nov-16 04:00N 62°60' E 006°58'4 8.9
2017-Nov-16 03:30N 62°57' E 006°50'5 9.5
2017-Nov-16 03:00N 62°53' E 006°44'5 9.7
2017-Nov-16 02:30N 62°49' E 006°38'5 9.0
2017-Nov-16 02:00N 62°45' E 006°37'4 8.4
2017-Nov-16 01:30N 62°41' E 006°40'2 3.5
2017-Nov-16 01:01N 62°42' E 006°39'4 8.5
2017-Nov-16 00:30N 62°41' E 006°30'5 9.2
2017-Nov-16 00:00N 62°38' E 006°22'4 8.7
2017-Nov-15 23:30N 62°35' E 006°15'4 8.4
2017-Nov-15 23:00N 62°32' E 006°10'4 8.2
2017-Nov-15 22:30N 62°28' E 006°05'2 5.1
2017-Nov-15 22:01N 62°28' E 006°10'1 2.5
2017-Nov-15 21:30N 62°28' E 006°08'0 0.0
2017-Nov-15 21:00N 62°28' E 006°08'0 0.0
2017-Nov-15 20:30N 62°28' E 006°08'1 1.1
2017-Nov-15 20:00N 62°28' E 006°07'0 0.0
2017-Nov-15 19:30N 62°28' E 006°07'0 0.0
2017-Nov-15 19:00N 62°28' E 006°07'0 0.0
2017-Nov-15 18:30N 62°28' E 006°07'0 0.0
2017-Nov-15 18:00N 62°28' E 006°07'0 0.0
2017-Nov-15 17:30N 62°28' E 006°07'0 0.0
2017-Nov-15 17:00N 62°28' E 006°07'0 0.0
2017-Nov-15 16:30N 62°28' E 006°07'0 0.0
2017-Nov-15 16:00N 62°28' E 006°07'0 0.0
2017-Nov-15 15:30N 62°28' E 006°07'0 0.0
2017-Nov-15 15:00N 62°28' E 006°07'0 0.0
2017-Nov-15 14:30N 62°28' E 006°07'0 0.0
2017-Nov-15 14:00N 62°28' E 006°07'0 0.0
2017-Nov-15 13:30N 62°28' E 006°07'0 0.0
2017-Nov-15 13:00N 62°28' E 006°07'0 0.0
2017-Nov-15 12:30N 62°28' E 006°07'0 0.0
2017-Nov-15 12:00N 62°28' E 006°07'0 0.0
2017-Nov-15 11:30N 62°28' E 006°07'0 0.0
2017-Nov-15 11:00N 62°28' E 006°07'0 0.0
2017-Nov-15 10:30N 62°28' E 006°07'0 0.0
2017-Nov-15 10:00N 62°28' E 006°07'0 0.0
2017-Nov-15 09:30N 62°28' E 006°07'0 0.0
2017-Nov-15 09:00N 62°28' E 006°07'0 0.0
2017-Nov-15 08:30N 62°28' E 006°07'0 0.0
2017-Nov-15 08:00N 62°28' E 006°07'0 0.0
2017-Nov-15 07:30N 62°28' E 006°07'0 0.0
2017-Nov-15 07:00N 62°28' E 006°07'0 0.0
2017-Nov-15 06:30N 62°28' E 006°07'0 0.0
2017-Nov-15 06:00N 62°28' E 006°07'0 0.0
2017-Nov-15 05:30N 62°28' E 006°07'0 0.0
2017-Nov-15 05:00N 62°28' E 006°07'0 0.0
2017-Nov-15 04:30N 62°28' E 006°07'0 0.0
2017-Nov-15 04:00N 62°28' E 006°07'0 0.0
2017-Nov-15 03:30N 62°28' E 006°07'0 0.0
2017-Nov-15 03:01N 62°28' E 006°07'0 0.0
2017-Nov-15 02:30N 62°28' E 006°07'0 0.0
2017-Nov-15 02:00N 62°28' E 006°07'0 0.0
2017-Nov-15 01:30N 62°28' E 006°07'0 0.0
2017-Nov-15 01:00N 62°28' E 006°07'0 0.0
2017-Nov-15 00:30N 62°28' E 006°07'0 0.0
2017-Nov-15 00:00N 62°28' E 006°07'0 0.0
2017-Nov-14 23:30N 62°28' E 006°07'0 0.0
2017-Nov-14 23:00N 62°28' E 006°07'0 0.0
2017-Nov-14 22:30N 62°28' E 006°07'0 0.0
2017-Nov-14 22:00N 62°28' E 006°07'0 0.0
2017-Nov-14 21:30N 62°28' E 006°07'0 0.0
2017-Nov-14 21:00N 62°28' E 006°07'0 0.0
2017-Nov-14 20:30N 62°28' E 006°07'0 0.0
2017-Nov-14 20:00N 62°28' E 006°07'0 0.0
2017-Nov-14 19:30N 62°28' E 006°07'0 0.0
2017-Nov-14 19:00N 62°28' E 006°07'0 0.0
2017-Nov-14 18:30N 62°28' E 006°07'0 0.0
2017-Nov-14 18:00N 62°28' E 006°07'0 0.0
2017-Nov-14 17:30N 62°28' E 006°07'0 0.0
2017-Nov-14 17:00N 62°28' E 006°07'0 0.0
2017-Nov-14 16:30N 62°28' E 006°07'0 0.0
2017-Nov-14 16:00N 62°28' E 006°07'0 0.0
2017-Nov-14 15:30N 62°28' E 006°07'0 0.0
2017-Nov-14 15:00N 62°28' E 006°07'0 0.0
2017-Nov-14 14:30N 62°28' E 006°07'0 0.0
2017-Nov-14 14:00N 62°28' E 006°07'0 0.0
2017-Nov-14 13:30N 62°28' E 006°07'0 0.0
2017-Nov-14 13:01N 62°28' E 006°07'0 0.0
2017-Nov-14 12:30N 62°28' E 006°07'0 0.0
2017-Nov-14 12:00N 62°28' E 006°07'0 0.0
2017-Nov-14 11:30N 62°28' E 006°07'0 0.0
2017-Nov-14 11:00N 62°28' E 006°07'0 0.0
2017-Nov-14 10:30N 62°28' E 006°07'0 0.0
2017-Nov-14 10:00N 62°28' E 006°07'0 0.0
2017-Nov-14 09:30N 62°28' E 006°07'0 0.0
2017-Nov-14 09:00N 62°28' E 006°07'0 0.0
2017-Nov-14 08:30N 62°28' E 006°07'0 0.0
2017-Nov-14 08:00N 62°28' E 006°07'0 0.0
2017-Nov-14 07:30N 62°28' E 006°07'0 0.0
2017-Nov-14 07:00N 62°28' E 006°07'0 0.0
2017-Nov-14 06:30N 62°28' E 006°07'0 0.0
2017-Nov-14 06:00N 62°28' E 006°07'0 0.0
2017-Nov-14 05:30N 62°28' E 006°07'0 0.0
2017-Nov-14 05:00N 62°28' E 006°07'0 0.0
2017-Nov-14 04:30N 62°28' E 006°07'0 0.0
2017-Nov-14 04:00N 62°28' E 006°07'0 0.0
2017-Nov-14 03:30N 62°28' E 006°07'0 0.0
2017-Nov-14 03:00N 62°28' E 006°07'0 0.0
2017-Nov-14 02:30N 62°28' E 006°07'0 0.0
2017-Nov-14 02:00N 62°28' E 006°07'0 0.0
2017-Nov-14 01:30N 62°28' E 006°07'0 0.0
2017-Nov-14 01:00N 62°28' E 006°07'0 0.0
2017-Nov-14 00:30N 62°28' E 006°07'0 0.0
2017-Nov-14 00:01N 62°28' E 006°07'0 0.0
2017-Nov-13 23:30N 62°28' E 006°07'0 0.0
2017-Nov-13 23:00N 62°28' E 006°07'0 0.0
2017-Nov-13 22:30N 62°28' E 006°07'0 0.0
2017-Nov-13 22:00N 62°28' E 006°07'0 0.0
2017-Nov-13 02:00N 62°28' E 006°07'0 0.0
2017-Nov-13 01:30N 62°28' E 006°07'0 0.0
2017-Nov-13 01:00N 62°28' E 006°07'0 0.0
2017-Nov-13 00:30N 62°28' E 006°07'0 0.0
2017-Nov-13 00:00N 62°28' E 006°07'0 0.0
2017-Nov-12 23:30N 62°28' E 006°07'0 0.0
2017-Nov-12 23:00N 62°28' E 006°07'0 0.0
2017-Nov-12 22:30N 62°28' E 006°07'0 0.0
2017-Nov-12 22:00N 62°28' E 006°07'0 0.0
2017-Nov-12 21:30N 62°28' E 006°07'0 0.0
2017-Nov-12 21:00N 62°28' E 006°07'0 0.0
2017-Nov-12 20:30N 62°28' E 006°07'0 0.0
2017-Nov-12 20:00N 62°28' E 006°07'0 0.0
2017-Nov-12 19:30N 62°28' E 006°07'1 2.3
2017-Nov-12 19:00N 62°29' E 006°08'5 9.1
2017-Nov-12 18:30N 62°34' E 006°11'5 9.4
2017-Nov-12 18:00N 62°37' E 006°19'4 9.1
2017-Nov-12 17:30N 62°38' E 006°28'5 9.1
2017-Nov-12 17:00N 62°39' E 006°38'2 4.1
2017-Nov-12 16:30N 62°41' E 006°40'0 0.0
2017-Nov-12 16:00N 62°41' E 006°40'0 0.0
2017-Nov-12 15:30N 62°41' E 006°40'0 0.0
2017-Nov-12 15:00N 62°41' E 006°40'0 0.0
2017-Nov-12 14:30N 62°41' E 006°40'0 0.0
2017-Nov-12 14:00N 62°41' E 006°40'0 0.0
2017-Nov-12 13:30N 62°41' E 006°40'0 0.0
2017-Nov-12 13:01N 62°41' E 006°40'0 0.0
2017-Nov-12 12:30N 62°41' E 006°40'0 0.0
2017-Nov-12 12:00N 62°41' E 006°40'0 0.0
2017-Nov-12 11:30N 62°41' E 006°40'0 0.0
2017-Nov-12 11:00N 62°41' E 006°40'0 0.0
2017-Nov-12 10:29N 62°41' E 006°40'0 0.0
2017-Nov-12 10:00N 62°41' E 006°40'0 0.0
2017-Nov-12 09:30N 62°41' E 006°40'0 0.0
2017-Nov-12 09:00N 62°41' E 006°40'0 0.0
2017-Nov-12 08:30N 62°41' E 006°40'0 0.0
2017-Nov-12 08:00N 62°41' E 006°40'0 0.0
2017-Nov-12 07:30N 62°41' E 006°40'0 0.0
2017-Nov-12 06:59N 62°41' E 006°40'0 0.0
2017-Nov-12 06:30N 62°41' E 006°40'0 0.0
2017-Nov-12 06:00N 62°41' E 006°40'0 0.0
2017-Nov-12 05:30N 62°41' E 006°40'0 0.0
2017-Nov-12 05:00N 62°41' E 006°40'0 0.0
2017-Nov-12 04:30N 62°41' E 006°40'0 0.0
2017-Nov-12 04:00N 62°41' E 006°40'0 0.0
2017-Nov-12 03:30N 62°41' E 006°40'0 0.0
2017-Nov-12 03:00N 62°41' E 006°40'0 0.0
2017-Nov-12 02:29N 62°41' E 006°40'0 0.0
2017-Nov-12 02:00N 62°41' E 006°40'0 0.0
2017-Nov-12 01:30N 62°41' E 006°40'0 0.0
2017-Nov-12 01:00N 62°41' E 006°40'0 0.0
2017-Nov-12 00:29N 62°41' E 006°40'0 0.0
2017-Nov-12 00:00N 62°41' E 006°40'0 0.0
2017-Nov-11 23:30N 62°41' E 006°40'0 0.0
2017-Nov-11 23:00N 62°41' E 006°40'0 0.0
2017-Nov-11 22:29N 62°41' E 006°40'0 0.0
2017-Nov-11 22:00N 62°41' E 006°40'0 0.0
2017-Nov-11 21:30N 62°41' E 006°40'0 0.0
2017-Nov-11 21:00N 62°41' E 006°40'0 0.0
2017-Nov-11 20:30N 62°41' E 006°40'0 0.0
2017-Nov-11 20:00N 62°41' E 006°40'0 0.0
2017-Nov-11 19:30N 62°41' E 006°40'0 0.0
2017-Nov-11 19:00N 62°41' E 006°40'0 0.0
2017-Nov-11 18:30N 62°41' E 006°40'0 0.0
2017-Nov-11 18:00N 62°41' E 006°40'0 0.0
2017-Nov-11 17:30N 62°41' E 006°40'0 0.0
2017-Nov-11 17:00N 62°41' E 006°40'0 0.0
2017-Nov-11 16:29N 62°41' E 006°40'0 0.0
2017-Nov-11 16:00N 62°41' E 006°40'0 0.0
2017-Nov-11 15:30N 62°41' E 006°40'0 0.0
2017-Nov-11 15:01N 62°41' E 006°40'0 0.0
2017-Nov-11 14:29N 62°41' E 006°40'0 0.0
2017-Nov-11 14:00N 62°41' E 006°40'0 0.0
2017-Nov-11 13:30N 62°41' E 006°40'0 0.0
2017-Nov-11 13:00N 62°41' E 006°40'0 0.0
2017-Nov-11 12:30N 62°41' E 006°40'0 0.0
2017-Nov-11 12:00N 62°41' E 006°40'0 0.0
2017-Nov-11 11:30N 62°41' E 006°40'0 0.0
2017-Nov-11 11:00N 62°41' E 006°40'0 0.0
2017-Nov-11 10:30N 62°41' E 006°40'0 0.0
2017-Nov-11 10:00N 62°41' E 006°40'0 0.0
2017-Nov-11 09:30N 62°41' E 006°40'0 0.0
2017-Nov-11 09:00N 62°41' E 006°40'0 0.0
2017-Nov-11 08:30N 62°41' E 006°40'0 0.0
2017-Nov-11 08:00N 62°41' E 006°40'0 0.0
2017-Nov-11 07:30N 62°41' E 006°40'0 0.0
2017-Nov-11 07:00N 62°41' E 006°40'0 0.0
2017-Nov-11 06:30N 62°41' E 006°40'0 0.0
2017-Nov-11 06:00N 62°41' E 006°40'0 0.0
2017-Nov-11 05:29N 62°41' E 006°40'0 0.0
2017-Nov-11 05:00N 62°41' E 006°40'0 0.0
2017-Nov-11 04:30N 62°41' E 006°40'0 0.0
2017-Nov-11 04:01N 62°41' E 006°40'0 0.0
2017-Nov-11 03:30N 62°41' E 006°40'0 0.0
2017-Nov-11 03:00N 62°41' E 006°40'0 0.0
2017-Nov-11 02:30N 62°41' E 006°40'0 0.0
2017-Nov-11 02:00N 62°41' E 006°40'0 0.0
2017-Nov-11 01:30N 62°41' E 006°40'0 0.0
2017-Nov-11 01:00N 62°41' E 006°40'0 0.0
2017-Nov-11 00:30N 62°41' E 006°40'0 0.0
2017-Nov-11 00:00N 62°41' E 006°40'0 0.0
2017-Nov-10 23:30N 62°41' E 006°40'0 0.0
2017-Nov-10 23:00N 62°41' E 006°40'0 0.0
2017-Nov-10 22:30N 62°41' E 006°40'0 0.0
2017-Nov-10 22:00N 62°41' E 006°40'0 0.0
2017-Nov-10 21:30N 62°41' E 006°40'0 0.0
2017-Nov-10 21:00N 62°41' E 006°40'0 0.0
2017-Nov-10 20:30N 62°41' E 006°40'0 0.0
2017-Nov-10 20:00N 62°41' E 006°40'0 0.0
2017-Nov-10 19:30N 62°41' E 006°40'0 0.0
2017-Nov-10 19:00N 62°41' E 006°40'0 0.0
2017-Nov-10 18:30N 62°41' E 006°40'0 0.0
2017-Nov-10 18:00N 62°41' E 006°40'0 0.0
2017-Nov-10 17:30N 62°41' E 006°40'0 0.0
2017-Nov-10 17:00N 62°41' E 006°40'0 0.0
2017-Nov-10 16:30N 62°41' E 006°40'0 0.0
2017-Nov-10 16:00N 62°41' E 006°40'0 0.0
2017-Nov-10 15:30N 62°41' E 006°40'0 0.0
2017-Nov-10 15:00N 62°41' E 006°40'0 0.0
2017-Nov-10 14:30N 62°41' E 006°40'0 0.0
2017-Nov-10 14:00N 62°41' E 006°40'0 0.0
2017-Nov-10 13:30N 62°41' E 006°40'0 0.0
2017-Nov-10 13:00N 62°41' E 006°40'0 0.0
2017-Nov-10 12:30N 62°41' E 006°40'0 0.0
2017-Nov-10 12:00N 62°41' E 006°40'0 0.0
2017-Nov-10 11:30N 62°41' E 006°40'0 0.0
2017-Nov-10 11:00N 62°41' E 006°40'0 0.0
2017-Nov-10 10:30N 62°41' E 006°40'0 0.0
2017-Nov-10 10:00N 62°41' E 006°40'0 0.0
2017-Nov-10 09:30N 62°41' E 006°40'0 0.0
2017-Nov-10 09:00N 62°41' E 006°40'0 0.0
2017-Nov-10 08:30N 62°41' E 006°40'0 0.0
2017-Nov-10 08:00N 62°41' E 006°40'0 0.0
2017-Nov-10 07:30N 62°41' E 006°40'0 0.0
2017-Nov-10 07:01N 62°41' E 006°40'0 0.0
2017-Nov-10 06:30N 62°41' E 006°40'0 0.0
2017-Nov-10 06:00N 62°41' E 006°40'0 0.0
2017-Nov-10 05:31N 62°41' E 006°40'0 0.0
2017-Nov-10 05:00N 62°41' E 006°40'0 0.0
2017-Nov-10 04:30N 62°41' E 006°40'0 0.0
2017-Nov-10 04:00N 62°41' E 006°40'0 0.0
2017-Nov-10 03:30N 62°41' E 006°40'0 0.0
2017-Nov-10 03:00N 62°41' E 006°40'0 0.0
2017-Nov-10 02:30N 62°41' E 006°40'0 0.0
2017-Nov-10 02:00N 62°41' E 006°40'0 0.0
2017-Nov-10 01:30N 62°41' E 006°40'0 0.0
2017-Nov-10 01:00N 62°41' E 006°40'0 0.0
2017-Nov-10 00:30N 62°41' E 006°40'0 0.0
2017-Nov-10 00:00N 62°41' E 006°40'0 0.0
2017-Nov-09 23:30N 62°41' E 006°40'0 0.0
2017-Nov-09 23:00N 62°41' E 006°40'0 0.0
2017-Nov-09 22:30N 62°41' E 006°40'0 0.0
2017-Nov-09 21:59N 62°41' E 006°40'0 0.0
2017-Nov-09 21:30N 62°41' E 006°40'0 0.0
2017-Nov-09 21:00N 62°41' E 006°40'0 0.0
2017-Nov-09 20:30N 62°41' E 006°40'0 0.0
2017-Nov-09 20:00N 62°41' E 006°40'0 0.0
2017-Nov-09 19:30N 62°41' E 006°40'0 0.0
2017-Nov-09 19:00N 62°41' E 006°40'0 0.0
2017-Nov-09 18:30N 62°41' E 006°40'0 0.0
2017-Nov-09 18:00N 62°41' E 006°40'0 0.0
2017-Nov-09 17:30N 62°41' E 006°40'0 0.0
2017-Nov-09 17:00N 62°41' E 006°40'0 0.0
2017-Nov-09 16:30N 62°41' E 006°40'0 0.0
2017-Nov-09 16:00N 62°41' E 006°40'0 0.0
2017-Nov-09 15:30N 62°41' E 006°40'0 0.0
2017-Nov-09 15:00N 62°41' E 006°40'0 0.0
2017-Nov-09 14:30N 62°41' E 006°40'0 0.0
2017-Nov-09 14:00N 62°41' E 006°40'0 0.0
2017-Nov-09 13:29N 62°41' E 006°40'0 0.0
2017-Nov-09 13:00N 62°41' E 006°40'0 0.0
2017-Nov-09 12:30N 62°41' E 006°40'0 0.0
2017-Nov-09 12:00N 62°41' E 006°40'0 0.0
2017-Nov-09 11:30N 62°41' E 006°40'0 0.0
2017-Nov-09 11:00N 62°41' E 006°40'0 0.0
2017-Nov-09 10:30N 62°41' E 006°40'0 0.0
2017-Nov-09 10:00N 62°41' E 006°40'0 0.0
2017-Nov-09 09:30N 62°41' E 006°40'0 0.0
2017-Nov-09 08:59N 62°41' E 006°40'0 0.0
2017-Nov-09 08:30N 62°41' E 006°40'0 0.0
2017-Nov-09 08:00N 62°41' E 006°40'0 0.0
2017-Nov-09 07:30N 62°41' E 006°40'0 0.0
2017-Nov-09 07:00N 62°41' E 006°40'0 0.0
2017-Nov-09 06:30N 62°41' E 006°40'0 0.0
2017-Nov-09 06:00N 62°41' E 006°40'0 0.0
2017-Nov-09 05:30N 62°41' E 006°40'0 0.0
2017-Nov-09 05:00N 62°41' E 006°40'0 0.0
2017-Nov-09 04:30N 62°41' E 006°40'0 0.0
2017-Nov-09 04:00N 62°41' E 006°40'0 0.0
2017-Nov-09 03:30N 62°41' E 006°40'0 0.0
2017-Nov-09 03:00N 62°41' E 006°40'0 0.0
2017-Nov-09 02:29N 62°41' E 006°40'0 0.0
2017-Nov-09 02:00N 62°41' E 006°40'0 0.0
2017-Nov-09 01:30N 62°41' E 006°40'0 0.0
2017-Nov-09 00:59N 62°41' E 006°40'0 0.0
2017-Nov-09 00:30N 62°41' E 006°40'0 0.0
2017-Nov-09 00:00N 62°41' E 006°40'0 0.0
2017-Nov-08 23:30N 62°41' E 006°40'0 0.0
2017-Nov-08 23:00N 62°41' E 006°40'0 0.0
2017-Nov-08 22:29N 62°41' E 006°40'0 0.0
2017-Nov-08 22:00N 62°41' E 006°40'0 0.0
2017-Nov-08 21:30N 62°41' E 006°40'0 0.0
2017-Nov-08 21:00N 62°41' E 006°40'0 0.0
2017-Nov-08 20:30N 62°41' E 006°40'0 0.0
2017-Nov-08 20:00N 62°41' E 006°40'0 0.0
2017-Nov-08 19:30N 62°41' E 006°40'0 0.0
2017-Nov-08 19:00N 62°41' E 006°40'0 0.0
2017-Nov-08 18:30N 62°41' E 006°40'0 0.0
2017-Nov-08 18:00N 62°41' E 006°40'0 0.0
2017-Nov-08 17:30N 62°41' E 006°40'0 0.0
2017-Nov-08 17:00N 62°41' E 006°40'0 0.0
2017-Nov-08 16:30N 62°41' E 006°40'0 0.0
2017-Nov-08 16:00N 62°41' E 006°40'0 0.0
2017-Nov-08 15:30N 62°41' E 006°40'0 0.0
2017-Nov-08 14:59N 62°41' E 006°40'0 0.0
2017-Nov-08 14:30N 62°41' E 006°40'0 0.0
2017-Nov-08 14:00N 62°41' E 006°40'0 0.0
2017-Nov-08 13:30N 62°41' E 006°40'0 0.0
2017-Nov-08 13:00N 62°41' E 006°40'0 0.0
2017-Nov-08 12:30N 62°41' E 006°40'0 0.0
2017-Nov-08 12:00N 62°41' E 006°40'0 0.0
2017-Nov-08 11:30N 62°41' E 006°40'0 0.0
2017-Nov-08 11:00N 62°41' E 006°40'0 0.0
2017-Nov-08 10:30N 62°41' E 006°40'0 0.0
2017-Nov-08 09:59N 62°41' E 006°40'0 0.0
2017-Nov-08 09:30N 62°41' E 006°40'0 0.0
2017-Nov-08 09:00N 62°41' E 006°40'0 0.0
2017-Nov-08 08:30N 62°41' E 006°40'  
Track history (hours):
 
Tides and Currents Weather Stations Pressure Air Temp Water Temp Dewpoint Dewpoint Depression Visibility Wind Speed Wind Dir Waves Ship Positions

Midoey Viking

Last reported at 2017-Nov-18 08:15 UTC. Time now 2017-Nov-19 01:29 UTC.
Position N 69°07' E 017°38'.

Length 33 m; draft 5.5 m.

Type: Fishing. MMSI: 257465500.

Date/timePositionNaut miles runAvg speedWind from/ knotsBaromVisibWave heightAir tempDewpointWater temp
2017-Nov-18 08:15N 69°07' E 017°38'2 9.2
2017-Nov-18 08:00N 69°06' E 017°32'110 8.7
2017-Nov-17 19:25N 67°39' E 014°31'4 9.3
2017-Nov-17 19:00N 67°36' E 014°31'5 9.2
2017-Nov-17 18:31N 67°31' E 014°32'5 9.0
2017-Nov-17 18:00N 67°27' E 014°29'5 9.4
2017-Nov-17 17:31N 67°22' E 014°25'4 9.0
2017-Nov-17 17:01N 67°19' E 014°18'4 8.9
2017-Nov-17 16:30N 67°15' E 014°11'4 8.6
2017-Nov-17 16:00N 67°11' E 014°05'5 9.1
2017-Nov-17 15:29N 67°07' E 014°00'5 9.3
2017-Nov-17 15:00N 67°03' E 013°53'4 9.2
2017-Nov-17 14:30N 67°01' E 013°44'5 9.0
2017-Nov-17 14:00N 66°58' E 013°34'6 8.1
2017-Nov-17 13:19N 66°54' E 013°26'25 9.1
2017-Nov-17 10:34N 66°31' E 012°58'110.0
2017-Nov-17 10:29N 66°30' E 012°59'7 9.7
2017-Nov-17 09:46N 66°23' E 012°59'3 9.6
2017-Nov-17 09:30N 66°21' E 012°58'63 8.9
2017-Nov-17 02:26N 65°22' E 012°02'4 7.7
2017-Nov-17 01:56N 65°18' E 011°60'4 9.5
2017-Nov-17 01:30N 65°15' E 011°55'5 9.7
2017-Nov-17 01:00N 65°10' E 011°51'5 9.5
2017-Nov-17 00:30N 65°06' E 011°47'5 9.4
2017-Nov-17 00:00N 65°01' E 011°42'4 8.7
2017-Nov-16 23:31N 64°58' E 011°34'5 9.1
2017-Nov-16 23:00N 64°56' E 011°26'5 9.3
2017-Nov-16 22:31N 64°53' E 011°17'5 9.0
2017-Nov-16 22:00N 64°49' E 011°10'112 8.7
2017-Nov-16 09:06N 63°23' E 008°28'1 9.3
2017-Nov-16 09:00N 63°22' E 008°27'5 9.5
2017-Nov-16 08:30N 63°19' E 008°18'5 9.9
2017-Nov-16 08:00N 63°16' E 008°09'5 9.6
2017-Nov-16 07:30N 63°14' E 008°00'5 9.8
2017-Nov-16 07:00N 63°12' E 007°50'5 9.7
2017-Nov-16 06:30N 63°09' E 007°41'5 9.5
2017-Nov-16 06:00N 63°07' E 007°33'5 8.9
2017-Nov-16 05:30N 63°04' E 007°24'4 8.6
2017-Nov-16 05:00N 63°03' E 007°15'4 8.4
2017-Nov-16 04:30N 63°01' E 007°07'4 8.6
2017-Nov-16 04:00N 62°60' E 006°58'4 8.9
2017-Nov-16 03:30N 62°57' E 006°50'5 9.5
2017-Nov-16 03:00N 62°53' E 006°44'5 9.7
2017-Nov-16 02:30N 62°49' E 006°38'5 9.0
2017-Nov-16 02:00N 62°45' E 006°37'4 8.4
2017-Nov-16 01:30N 62°41' E 006°40'2 3.5
2017-Nov-16 01:01N 62°42' E 006°39'4 8.5
2017-Nov-16 00:30N 62°41' E 006°30'5 9.2
2017-Nov-16 00:00N 62°38' E 006°22'4 8.7
2017-Nov-15 23:30N 62°35' E 006°15'4 8.4
2017-Nov-15 23:00N 62°32' E 006°10'4 8.2
2017-Nov-15 22:30N 62°28' E 006°05'2 5.1
2017-Nov-15 22:01N 62°28' E 006°10'1 2.5
2017-Nov-15 21:30N 62°28' E 006°08'0 0.0
2017-Nov-15 21:00N 62°28' E 006°08'0 0.0
2017-Nov-15 20:30N 62°28' E 006°08'1 1.1
2017-Nov-15 20:00N 62°28' E 006°07'0 0.0
2017-Nov-15 19:30N 62°28' E 006°07'0 0.0
2017-Nov-15 19:00N 62°28' E 006°07'0 0.0
2017-Nov-15 18:30N 62°28' E 006°07'0 0.0
2017-Nov-15 18:00N 62°28' E 006°07'0 0.0
2017-Nov-15 17:30N 62°28' E 006°07'0 0.0
2017-Nov-15 17:00N 62°28' E 006°07'0 0.0
2017-Nov-15 16:30N 62°28' E 006°07'0 0.0
2017-Nov-15 16:00N 62°28' E 006°07'0 0.0
2017-Nov-15 15:30N 62°28' E 006°07'0 0.0
2017-Nov-15 15:00N 62°28' E 006°07'0 0.0
2017-Nov-15 14:30N 62°28' E 006°07'0 0.0
2017-Nov-15 14:00N 62°28' E 006°07'0 0.0
2017-Nov-15 13:30N 62°28' E 006°07'0 0.0
2017-Nov-15 13:00N 62°28' E 006°07'0 0.0
2017-Nov-15 12:30N 62°28' E 006°07'0 0.0
2017-Nov-15 12:00N 62°28' E 006°07'0 0.0
2017-Nov-15 11:30N 62°28' E 006°07'0 0.0
2017-Nov-15 11:00N 62°28' E 006°07'0 0.0
2017-Nov-15 10:30N 62°28' E 006°07'0 0.0
2017-Nov-15 10:00N 62°28' E 006°07'0 0.0
2017-Nov-15 09:30N 62°28' E 006°07'0 0.0
2017-Nov-15 09:00N 62°28' E 006°07'0 0.0
2017-Nov-15 08:30N 62°28' E 006°07'0 0.0
2017-Nov-15 08:00N 62°28' E 006°07'0 0.0
2017-Nov-15 07:30N 62°28' E 006°07'0 0.0
2017-Nov-15 07:00N 62°28' E 006°07'0 0.0
2017-Nov-15 06:30N 62°28' E 006°07'0 0.0
2017-Nov-15 06:00N 62°28' E 006°07'0 0.0
2017-Nov-15 05:30N 62°28' E 006°07'0 0.0
2017-Nov-15 05:00N 62°28' E 006°07'0 0.0
2017-Nov-15 04:30N 62°28' E 006°07'0 0.0
2017-Nov-15 04:00N 62°28' E 006°07'0 0.0
2017-Nov-15 03:30N 62°28' E 006°07'0 0.0
2017-Nov-15 03:01N 62°28' E 006°07'0 0.0
2017-Nov-15 02:30N 62°28' E 006°07'0 0.0
2017-Nov-15 02:00N 62°28' E 006°07'0 0.0
2017-Nov-15 01:30N 62°28' E 006°07'0 0.0
2017-Nov-15 01:00N 62°28' E 006°07'0 0.0
2017-Nov-15 00:30N 62°28' E 006°07'0 0.0
2017-Nov-15 00:00N 62°28' E 006°07'0 0.0
2017-Nov-14 23:30N 62°28' E 006°07'0 0.0
2017-Nov-14 23:00N 62°28' E 006°07'0 0.0
2017-Nov-14 22:30N 62°28' E 006°07'0 0.0
2017-Nov-14 22:00N 62°28' E 006°07'0 0.0
2017-Nov-14 21:30N 62°28' E 006°07'0 0.0
2017-Nov-14 21:00N 62°28' E 006°07'0 0.0
2017-Nov-14 20:30N 62°28' E 006°07'0 0.0
2017-Nov-14 20:00N 62°28' E 006°07'0 0.0
2017-Nov-14 19:30N 62°28' E 006°07'0 0.0
2017-Nov-14 19:00N 62°28' E 006°07'0 0.0
2017-Nov-14 18:30N 62°28' E 006°07'0 0.0
2017-Nov-14 18:00N 62°28' E 006°07'0 0.0
2017-Nov-14 17:30N 62°28' E 006°07'0 0.0
2017-Nov-14 17:00N 62°28' E 006°07'0 0.0
2017-Nov-14 16:30N 62°28' E 006°07'0 0.0
2017-Nov-14 16:00N 62°28' E 006°07'0 0.0
2017-Nov-14 15:30N 62°28' E 006°07'0 0.0
2017-Nov-14 15:00N 62°28' E 006°07'0 0.0
2017-Nov-14 14:30N 62°28' E 006°07'0 0.0
2017-Nov-14 14:00N 62°28' E 006°07'0 0.0
2017-Nov-14 13:30N 62°28' E 006°07'0 0.0
2017-Nov-14 13:01N 62°28' E 006°07'0 0.0
2017-Nov-14 12:30N 62°28' E 006°07'0 0.0
2017-Nov-14 12:00N 62°28' E 006°07'0 0.0
2017-Nov-14 11:30N 62°28' E 006°07'0 0.0
2017-Nov-14 11:00N 62°28' E 006°07'0 0.0
2017-Nov-14 10:30N 62°28' E 006°07'0 0.0
2017-Nov-14 10:00N 62°28' E 006°07'0 0.0
2017-Nov-14 09:30N 62°28' E 006°07'0 0.0
2017-Nov-14 09:00N 62°28' E 006°07'0 0.0
2017-Nov-14 08:30N 62°28' E 006°07'0 0.0
2017-Nov-14 08:00N 62°28' E 006°07'0 0.0
2017-Nov-14 07:30N 62°28' E 006°07'0 0.0
2017-Nov-14 07:00N 62°28' E 006°07'0 0.0
2017-Nov-14 06:30N 62°28' E 006°07'0 0.0
2017-Nov-14 06:00N 62°28' E 006°07'0 0.0
2017-Nov-14 05:30N 62°28' E 006°07'0 0.0
2017-Nov-14 05:00N 62°28' E 006°07'0 0.0
2017-Nov-14 04:30N 62°28' E 006°07'0 0.0
2017-Nov-14 04:00N 62°28' E 006°07'0 0.0
2017-Nov-14 03:30N 62°28' E 006°07'0 0.0
2017-Nov-14 03:00N 62°28' E 006°07'0 0.0
2017-Nov-14 02:30N 62°28' E 006°07'0 0.0
2017-Nov-14 02:00N 62°28' E 006°07'0 0.0
2017-Nov-14 01:30N 62°28' E 006°07'0 0.0
2017-Nov-14 01:00N 62°28' E 006°07'0 0.0
2017-Nov-14 00:30N 62°28' E 006°07'0 0.0
2017-Nov-14 00:01N 62°28' E 006°07'0 0.0
2017-Nov-13 23:30N 62°28' E 006°07'0 0.0
2017-Nov-13 23:00N 62°28' E 006°07'0 0.0
2017-Nov-13 22:30N 62°28' E 006°07'0 0.0
2017-Nov-13 22:00N 62°28' E 006°07'0 0.0
2017-Nov-13 02:00N 62°28' E 006°07'0 0.0
2017-Nov-13 01:30N 62°28' E 006°07'0 0.0
2017-Nov-13 01:00N 62°28' E 006°07'0 0.0
2017-Nov-13 00:30N 62°28' E 006°07'0 0.0
2017-Nov-13 00:00N 62°28' E 006°07'0 0.0
2017-Nov-12 23:30N 62°28' E 006°07'0 0.0
2017-Nov-12 23:00N 62°28' E 006°07'0 0.0
2017-Nov-12 22:30N 62°28' E 006°07'0 0.0
2017-Nov-12 22:00N 62°28' E 006°07'0 0.0
2017-Nov-12 21:30N 62°28' E 006°07'0 0.0
2017-Nov-12 21:00N 62°28' E 006°07'0 0.0
2017-Nov-12 20:30N 62°28' E 006°07'0 0.0
2017-Nov-12 20:00N 62°28' E 006°07'0 0.0
2017-Nov-12 19:30N 62°28' E 006°07'1 2.3
2017-Nov-12 19:00N 62°29' E 006°08'5 9.1
2017-Nov-12 18:30N 62°34' E 006°11'5 9.4
2017-Nov-12 18:00N 62°37' E 006°19'4 9.1
2017-Nov-12 17:30N 62°38' E 006°28'5 9.1
2017-Nov-12 17:00N 62°39' E 006°38'2 4.1
2017-Nov-12 16:30N 62°41' E 006°40'0 0.0
2017-Nov-12 16:00N 62°41' E 006°40'0 0.0
2017-Nov-12 15:30N 62°41' E 006°40'0 0.0
2017-Nov-12 15:00N 62°41' E 006°40'0 0.0
2017-Nov-12 14:30N 62°41' E 006°40'0 0.0
2017-Nov-12 14:00N 62°41' E 006°40'0 0.0
2017-Nov-12 13:30N 62°41' E 006°40'0 0.0
2017-Nov-12 13:01N 62°41' E 006°40'0 0.0
2017-Nov-12 12:30N 62°41' E 006°40'0 0.0
2017-Nov-12 12:00N 62°41' E 006°40'0 0.0
2017-Nov-12 11:30N 62°41' E 006°40'0 0.0
2017-Nov-12 11:00N 62°41' E 006°40'0 0.0
2017-Nov-12 10:29N 62°41' E 006°40'0 0.0
2017-Nov-12 10:00N 62°41' E 006°40'0 0.0
2017-Nov-12 09:30N 62°41' E 006°40'0 0.0
2017-Nov-12 09:00N 62°41' E 006°40'0 0.0
2017-Nov-12 08:30N 62°41' E 006°40'0 0.0
2017-Nov-12 08:00N 62°41' E 006°40'0 0.0
2017-Nov-12 07:30N 62°41' E 006°40'0 0.0
2017-Nov-12 06:59N 62°41' E 006°40'0 0.0
2017-Nov-12 06:30N 62°41' E 006°40'0 0.0
2017-Nov-12 06:00N 62°41' E 006°40'0 0.0
2017-Nov-12 05:30N 62°41' E 006°40'0 0.0
2017-Nov-12 05:00N 62°41' E 006°40'0 0.0
2017-Nov-12 04:30N 62°41' E 006°40'0 0.0
2017-Nov-12 04:00N 62°41' E 006°40'0 0.0
2017-Nov-12 03:30N 62°41' E 006°40'0 0.0
2017-Nov-12 03:00N 62°41' E 006°40'0 0.0
2017-Nov-12 02:29N 62°41' E 006°40'0 0.0
2017-Nov-12 02:00N 62°41' E 006°40'0 0.0
2017-Nov-12 01:30N 62°41' E 006°40'0 0.0
2017-Nov-12 01:00N 62°41' E 006°40'0 0.0
2017-Nov-12 00:29N 62°41' E 006°40'0 0.0
2017-Nov-12 00:00N 62°41' E 006°40'0 0.0
2017-Nov-11 23:30N 62°41' E 006°40'0 0.0
2017-Nov-11 23:00N 62°41' E 006°40'0 0.0
2017-Nov-11 22:29N 62°41' E 006°40'0 0.0
2017-Nov-11 22:00N 62°41' E 006°40'0 0.0
2017-Nov-11 21:30N 62°41' E 006°40'0 0.0
2017-Nov-11 21:00N 62°41' E 006°40'0 0.0
2017-Nov-11 20:30N 62°41' E 006°40'0 0.0
2017-Nov-11 20:00N 62°41' E 006°40'0 0.0
2017-Nov-11 19:30N 62°41' E 006°40'0 0.0
2017-Nov-11 19:00N 62°41' E 006°40'0 0.0
2017-Nov-11 18:30N 62°41' E 006°40'0 0.0
2017-Nov-11 18:00N 62°41' E 006°40'0 0.0
2017-Nov-11 17:30N 62°41' E 006°40'0 0.0
2017-Nov-11 17:00N 62°41' E 006°40'0 0.0
2017-Nov-11 16:29N 62°41' E 006°40'0 0.0
2017-Nov-11 16:00N 62°41' E 006°40'0 0.0
2017-Nov-11 15:30N 62°41' E 006°40'0 0.0
2017-Nov-11 15:01N 62°41' E 006°40'0 0.0
2017-Nov-11 14:29N 62°41' E 006°40'0 0.0
2017-Nov-11 14:00N 62°41' E 006°40'0 0.0
2017-Nov-11 13:30N 62°41' E 006°40'0 0.0
2017-Nov-11 13:00N 62°41' E 006°40'0 0.0
2017-Nov-11 12:30N 62°41' E 006°40'0 0.0
2017-Nov-11 12:00N 62°41' E 006°40'0 0.0
2017-Nov-11 11:30N 62°41' E 006°40'0 0.0
2017-Nov-11 11:00N 62°41' E 006°40'0 0.0
2017-Nov-11 10:30N 62°41' E 006°40'0 0.0
2017-Nov-11 10:00N 62°41' E 006°40'0 0.0
2017-Nov-11 09:30N 62°41' E 006°40'0 0.0
2017-Nov-11 09:00N 62°41' E 006°40'0 0.0
2017-Nov-11 08:30N 62°41' E 006°40'0 0.0
2017-Nov-11 08:00N 62°41' E 006°40'0 0.0
2017-Nov-11 07:30N 62°41' E 006°40'0 0.0
2017-Nov-11 07:00N 62°41' E 006°40'0 0.0
2017-Nov-11 06:30N 62°41' E 006°40'0 0.0
2017-Nov-11 06:00N 62°41' E 006°40'0 0.0
2017-Nov-11 05:29N 62°41' E 006°40'0 0.0
2017-Nov-11 05:00N 62°41' E 006°40'0 0.0
2017-Nov-11 04:30N 62°41' E 006°40'0 0.0
2017-Nov-11 04:01N 62°41' E 006°40'0 0.0
2017-Nov-11 03:30N 62°41' E 006°40'0 0.0
2017-Nov-11 03:00N 62°41' E 006°40'0 0.0
2017-Nov-11 02:30N 62°41' E 006°40'0 0.0
2017-Nov-11 02:00N 62°41' E 006°40'0 0.0
2017-Nov-11 01:30N 62°41' E 006°40'0 0.0
2017-Nov-11 01:00N 62°41' E 006°40'0 0.0
2017-Nov-11 00:30N 62°41' E 006°40'0 0.0
2017-Nov-11 00:00N 62°41' E 006°40'0 0.0
2017-Nov-10 23:30N 62°41' E 006°40'0 0.0
2017-Nov-10 23:00N 62°41' E 006°40'0 0.0
2017-Nov-10 22:30N 62°41' E 006°40'0 0.0
2017-Nov-10 22:00N 62°41' E 006°40'0 0.0
2017-Nov-10 21:30N 62°41' E 006°40'0 0.0
2017-Nov-10 21:00N 62°41' E 006°40'0 0.0
2017-Nov-10 20:30N 62°41' E 006°40'0 0.0
2017-Nov-10 20:00N 62°41' E 006°40'0 0.0
2017-Nov-10 19:30N 62°41' E 006°40'0 0.0
2017-Nov-10 19:00N 62°41' E 006°40'0 0.0
2017-Nov-10 18:30N 62°41' E 006°40'0 0.0
2017-Nov-10 18:00N 62°41' E 006°40'0 0.0
2017-Nov-10 17:30N 62°41' E 006°40'0 0.0
2017-Nov-10 17:00N 62°41' E 006°40'0 0.0
2017-Nov-10 16:30N 62°41' E 006°40'0 0.0
2017-Nov-10 16:00N 62°41' E 006°40'0 0.0
2017-Nov-10 15:30N 62°41' E 006°40'0 0.0
2017-Nov-10 15:00N 62°41' E 006°40'0 0.0
2017-Nov-10 14:30N 62°41' E 006°40'0 0.0
2017-Nov-10 14:00N 62°41' E 006°40'0 0.0
2017-Nov-10 13:30N 62°41' E 006°40'0 0.0
2017-Nov-10 13:00N 62°41' E 006°40'0 0.0
2017-Nov-10 12:30N 62°41' E 006°40'0 0.0
2017-Nov-10 12:00N 62°41' E 006°40'0 0.0
2017-Nov-10 11:30N 62°41' E 006°40'0 0.0
2017-Nov-10 11:00N 62°41' E 006°40'0 0.0
2017-Nov-10 10:30N 62°41' E 006°40'0 0.0
2017-Nov-10 10:00N 62°41' E 006°40'0 0.0
2017-Nov-10 09:30N 62°41' E 006°40'0 0.0
2017-Nov-10 09:00N 62°41' E 006°40'0 0.0
2017-Nov-10 08:30N 62°41' E 006°40'0 0.0
2017-Nov-10 08:00N 62°41' E 006°40'0 0.0
2017-Nov-10 07:30N 62°41' E 006°40'0 0.0
2017-Nov-10 07:01N 62°41' E 006°40'0 0.0
2017-Nov-10 06:30N 62°41' E 006°40'0 0.0
2017-Nov-10 06:00N 62°41' E 006°40'0 0.0
2017-Nov-10 05:31N 62°41' E 006°40'0 0.0
2017-Nov-10 05:00N 62°41' E 006°40'0 0.0
2017-Nov-10 04:30N 62°41' E 006°40'0 0.0
2017-Nov-10 04:00N 62°41' E 006°40'0 0.0
2017-Nov-10 03:30N 62°41' E 006°40'0 0.0
2017-Nov-10 03:00N 62°41' E 006°40'0 0.0
2017-Nov-10 02:30N 62°41' E 006°40'0 0.0
2017-Nov-10 02:00N 62°41' E 006°40'0 0.0
2017-Nov-10 01:30N 62°41' E 006°40'0 0.0
2017-Nov-10 01:00N 62°41' E 006°40'0 0.0
2017-Nov-10 00:30N 62°41' E 006°40'0 0.0
2017-Nov-10 00:00N 62°41' E 006°40'0 0.0
2017-Nov-09 23:30N 62°41' E 006°40'0 0.0
2017-Nov-09 23:00N 62°41' E 006°40'0 0.0
2017-Nov-09 22:30N 62°41' E 006°40'0 0.0
2017-Nov-09 21:59N 62°41' E 006°40'0 0.0
2017-Nov-09 21:30N 62°41' E 006°40'0 0.0
2017-Nov-09 21:00N 62°41' E 006°40'0 0.0
2017-Nov-09 20:30N 62°41' E 006°40'0 0.0
2017-Nov-09 20:00N 62°41' E 006°40'0 0.0
2017-Nov-09 19:30N 62°41' E 006°40'0 0.0
2017-Nov-09 19:00N 62°41' E 006°40'0 0.0
2017-Nov-09 18:30N 62°41' E 006°40'0 0.0
2017-Nov-09 18:00N 62°41' E 006°40'0 0.0
2017-Nov-09 17:30N 62°41' E 006°40'0 0.0
2017-Nov-09 17:00N 62°41' E 006°40'0 0.0
2017-Nov-09 16:30N 62°41' E 006°40'0 0.0
2017-Nov-09 16:00N 62°41' E 006°40'0 0.0
2017-Nov-09 15:30N 62°41' E 006°40'0 0.0
2017-Nov-09 15:00N 62°41' E 006°40'0 0.0
2017-Nov-09 14:30N 62°41' E 006°40'0 0.0
2017-Nov-09 14:00N 62°41' E 006°40'0 0.0
2017-Nov-09 13:29N 62°41' E 006°40'0 0.0
2017-Nov-09 13:00N 62°41' E 006°40'0 0.0
2017-Nov-09 12:30N 62°41' E 006°40'0 0.0
2017-Nov-09 12:00N 62°41' E 006°40'0 0.0
2017-Nov-09 11:30N 62°41' E 006°40'0 0.0
2017-Nov-09 11:00N 62°41' E 006°40'0 0.0
2017-Nov-09 10:30N 62°41' E 006°40'0 0.0
2017-Nov-09 10:00N 62°41' E 006°40'0 0.0
2017-Nov-09 09:30N 62°41' E 006°40'0 0.0
2017-Nov-09 08:59N 62°41' E 006°40'0 0.0
2017-Nov-09 08:30N 62°41' E 006°40'0 0.0
2017-Nov-09 08:00N 62°41' E 006°40'0 0.0
2017-Nov-09 07:30N 62°41' E 006°40'0 0.0
2017-Nov-09 07:00N 62°41' E 006°40'0 0.0
2017-Nov-09 06:30N 62°41' E 006°40'0 0.0
2017-Nov-09 06:00N 62°41' E 006°40'0 0.0
2017-Nov-09 05:30N 62°41' E 006°40'0 0.0
2017-Nov-09 05:00N 62°41' E 006°40'0 0.0
2017-Nov-09 04:30N 62°41' E 006°40'0 0.0
2017-Nov-09 04:00N 62°41' E 006°40'0 0.0
2017-Nov-09 03:30N 62°41' E 006°40'0 0.0
2017-Nov-09 03:00N 62°41' E 006°40'0 0.0
2017-Nov-09 02:29N 62°41' E 006°40'0 0.0
2017-Nov-09 02:00N 62°41' E 006°40'0 0.0
2017-Nov-09 01:30N 62°41' E 006°40'0 0.0
2017-Nov-09 00:59N 62°41' E 006°40'0 0.0
2017-Nov-09 00:30N 62°41' E 006°40'0 0.0
2017-Nov-09 00:00N 62°41' E 006°40'0 0.0
2017-Nov-08 23:30N 62°41' E 006°40'0 0.0
2017-Nov-08 23:00N 62°41' E 006°40'0 0.0
2017-Nov-08 22:29N 62°41' E 006°40'0 0.0
2017-Nov-08 22:00N 62°41' E 006°40'0 0.0
2017-Nov-08 21:30N 62°41' E 006°40'0 0.0
2017-Nov-08 21:00N 62°41' E 006°40'0 0.0
2017-Nov-08 20:30N 62°41' E 006°40'0 0.0
2017-Nov-08 20:00N 62°41' E 006°40'0 0.0
2017-Nov-08 19:30N 62°41' E 006°40'0 0.0
2017-Nov-08 19:00N 62°41' E 006°40'0 0.0
2017-Nov-08 18:30N 62°41' E 006°40'0 0.0
2017-Nov-08 18:00N 62°41' E 006°40'0 0.0
2017-Nov-08 17:30N 62°41' E 006°40'0 0.0
2017-Nov-08 17:00N 62°41' E 006°40'0 0.0
2017-Nov-08 16:30N 62°41' E 006°40'0 0.0
2017-Nov-08 16:00N 62°41' E 006°40'0 0.0
2017-Nov-08 15:30N 62°41' E 006°40'0 0.0
2017-Nov-08 14:59N 62°41' E 006°40'0 0.0
2017-Nov-08 14:30N 62°41' E 006°40'0 0.0
2017-Nov-08 14:00N 62°41' E 006°40'0 0.0
2017-Nov-08 13:30N 62°41' E 006°40'0 0.0
2017-Nov-08 13:00N 62°41' E 006°40'0 0.0
2017-Nov-08 12:30N 62°41' E 006°40'0 0.0
2017-Nov-08 12:00N 62°41' E 006°40'0 0.0
2017-Nov-08 11:30N 62°41' E 006°40'0 0.0
2017-Nov-08 11:00N 62°41' E 006°40'0 0.0
2017-Nov-08 10:30N 62°41' E 006°40'0 0.0
2017-Nov-08 09:59N 62°41' E 006°40'0 0.0
2017-Nov-08 09:30N 62°41' E 006°40'0 0.0
2017-Nov-08 09:00N 62°41' E 006°40'0 0.0
2017-Nov-08 08:30N 62°41' E 006°40'  

Dump ship's entire track history